• Join FlightAware (Why Join?)
  • Login
  • US Flag 
11:34PM EDT


 

Airport Tracker/Info


-or-


 

Live Flight TrackerFlight Track Log ✈ SKW4801 ✈ 03-May-2013 ✈ KBNA - KCVG

Flight Track Log - Related Links

Times and Time Zones

All times are in EDT time to prevent confusion due to time zone crossing. See the SKW4801 flight status page for this flight to view local times or setup timezone preferences in your user account.

Time Position Orientation Groundspeed Altitude Reporting Facility
EDT Latitude Longitude Course Direction KTS MPH feet Rate Location/Type
11:48AM 36.1167 -86.6833 North 152 175 1,500  Level Nashville TRACON
11:50AM 36.0833 -86.7500 238° Southwest 224 258 3,800 1,140 Climbing Nashville TRACON
11:51AM 36.0833 -86.8333 270° West 274 315 4,000 180 Climbing Nashville TRACON
11:51AM 36.1022 -86.9069 288° West 289 333 4,100 1,740 Climbing Memphis Center
11:52AM 36.4897 -86.7142 356° North  Level FlightAware Approximate
11:52AM 36.1439 -86.9850 303° West 307 353 6,900  Level Memphis Center
11:53AM 36.6074 -86.7333 North  Level FlightAware Approximate
11:53AM 36.2183 -86.9586 16° North 320 368 9,800  Level Memphis Center
11:54AM 36.7264 -86.7333 North  Level FlightAware Approximate
11:54AM 36.2881 -86.9172 26° Northeast 309 356 12,000  Level Memphis Center
11:55AM 36.3803 -86.8617 26° Northeast 315 362 14,500 2,220 Climbing Memphis Center
11:56AM 36.4622 -86.8117 26° Northeast 323 372 16,500 1,920 Climbing Memphis Center
11:57AM 36.5483 -86.7614 25° Northeast 333 383 18,400 1,800 Climbing Memphis Center
11:58AM 36.6436 -86.7364 12° North 340 391 20,100 1,260 Climbing Memphis Center
11:59AM 36.7478 -86.7394 359° North 353 406 21,000 420 Climbing Memphis Center
12:00PM 36.8483 -86.6883 22° Northeast 367 422 21,000  Level Memphis Center
12:03PM 37.0647 -86.5403 29° Northeast 373 429 21,000  Level Indianapolis Center
12:04PM 37.1478 -86.4694 34° Northeast 356 410 21,000  Level Indianapolis Center
12:05PM 37.2425 -86.4344 16° North 356 410 21,000  Level Indianapolis Center
12:06PM 37.3394 -86.3922 19° North 364 419 21,000  Level Indianapolis Center
12:07PM 37.4344 -86.3386 24° Northeast 368 423 21,000  Level Indianapolis Center
12:08PM 37.5289 -86.2825 25° Northeast 372 428 21,000  Level Indianapolis Center
12:09PM 37.6378 -86.2158 26° Northeast 369 425 21,000  Level Indianapolis Center
12:10PM 37.7211 -86.1683 24° Northeast 361 415 21,000  Level Indianapolis Center
12:11PM 37.8125 -86.1128 26° Northeast 362 417 21,000  Level Indianapolis Center
12:12PM 37.9017 -86.0575 26° Northeast 357 411 21,000  Level Indianapolis Center
12:13PM 38.0128 -85.9900 26° Northeast 365 420 21,000 -300 Level Indianapolis Center
12:14PM 38.1058 -85.9328 26° Northeast 371 427 20,400 -840 Descending Indianapolis Center
12:15PM 38.1986 -85.8761 26° Northeast 371 427 19,400 -1,020 Descending Indianapolis Center
12:16PM 38.2881 -85.8231 25° Northeast 361 415 18,400 -960 Descending Indianapolis Center
12:17PM 38.3722 -85.7700 26° Northeast 346 398 17,500 -960 Descending Indianapolis Center
12:18PM 38.4572 -85.7175 26° Northeast 340 391 16,500 -1,020 Descending Indianapolis Center
12:19PM 38.5414 -85.6642 26° Northeast 337 388 15,500 -1,500 Descending Indianapolis Center
12:20PM 38.6164 -85.5742 43° Northeast 311 358 13,400 -2,040 Descending Indianapolis Center
12:21PM 38.6575 -85.4856 59° Northeast 301 346 11,400 -1,200 Descending Indianapolis Center
12:22PM 38.6981 -85.3961 60° Northeast 293 337 11,000 -240 Descending Indianapolis Center
12:23PM 38.7364 -85.3061 61° Northeast 291 335 11,000 -360 Level Indianapolis Center
12:24PM 38.7764 -85.2125 61° Northeast 298 343 10,300 -540 Descending Indianapolis Center
12:25PM 38.8242 -85.1050 60° Northeast 291 335 10,000 -180 Descending Indianapolis Center
12:26PM 38.8617 -85.0153 62° Northeast 287 330 10,000  Level Indianapolis Center
12:27PM 38.9006 -84.9267 61° Northeast 285 328 10,000 -300 Level Indianapolis Center
12:28PM 38.9333 -84.8500 61° Northeast 287 330 9,500 -1,380 Descending Cincinnati TRACON
12:29PM 38.9833 -84.7833 46° Northeast 290 334 7,800 -1,380 Descending Cincinnati TRACON
12:30PM 39.0500 -84.7833 360° North 263 303 6,900 -1,080 Descending Cincinnati TRACON
12:31PM 39.1333 -84.7833 360° North 250 288 5,700 -1,020 Descending Cincinnati TRACON
12:32PM 39.2000 -84.7667 11° North 233 268 4,800 -1,020 Descending Cincinnati TRACON
12:33PM 39.2000 -84.7167 90° East 166 191 3,600 -1,200 Descending Cincinnati TRACON